Aeroporto :
LOGIN :

Iscrizione | Disclaimer

   EN    FR    IT 

 










Sommario :    VFR   VFR Marginale   IFR   IFR Intensivo   IFR Molto Intensivo
Visibilità : 
Base nubi : 
>= 8 km
>= 3000ft
5 / 8 km
1000 / 3000 ft
1500m / 5 km
500 / 1000 ft
800 / 1500m
200 / 500 ft
< 800m
< 200 ft
Simboli :   Temporali  Nebbia  Neve Forte  Precipitazioni Forti  Vento > 20 kt
SIGMETs :   Varie  Temporali  Ghiacco  Turbolenza  Onda orograficha  Ceneri Vulcaniche






- Altitudine del aeroporto : -13 ft
- Codice IATA : LEY


EHLE - Lelystad

ULTIMO METAR :
  • 151525Z AUTO 32005KT 290V360 9999 NSC 25/19 Q1014 TEMPO 5000 TSRA FEW035CB

METARs OBSOLETI :
  • 151455Z AUTO 33006KT 290V350 9999 NSC 25/20 Q1014 TEMPO 5000 TSRA FEW035CB
  • 151425Z AUTO 30007KT 280V340 8000 NSC 25/20 Q1014 NOSIG
  • 151355Z AUTO 22003KT 180V260 9999 NSC 26/18 Q1014 NOSIG
  • 151325Z AUTO VRB01KT 9999 NSC 26/19 Q1014 NOSIG

TAF TAF EHLE
Valido dal 15 a 12 ore il 16 a 18 ore UTC


151103Z 1512/1618 27005KT 4000 BR SCT010 BKN014
BECMG 1512/1515 31005KT 9999 NSW SCT020
PROB30 1522/1606 4500 BR MIFG
BECMG 1603/1605 08005KT
PROB40
TEMPO 1613/1618 5000 SHRA TSRA SCT035CB
TEMPO 1615/1618 VRB15G25KT 2500 +SHRA TSRAGR BKN025CB



MetMap, La meteo Aeronautica in un colpo d'occhio ! - Copyright ORBIFLY Dicembre 2007 - Disclaimer

ORBIFLY MET'MAP TEAM :

Programmazione e sviluppo : Alexandra Zaïnal
Concezione : Baudouin d'Aumeries
Aiuto per la programmazione : Marc-Olivier Méhu
Supporto tecnico e logistico : Manuel Goepfert
Aiuto per la traduzione : Arnaldo La Scala

Contatto : metmap@orbifly.com




FONTI E CREDITI :

   NOAA